sensor_id;sensor_type;location;lat;lon;timestamp;pressure;altitude;pressure_sealevel;temperature;humidity
75996;BME280;64681;49.738;9.004;2023-06-14T00:00:42;99108.72;;;13.43;64.15
75996;BME280;64681;49.738;9.004;2023-06-14T00:03:08;99110.19;;;13.21;65.00
75996;BME280;64681;49.738;9.004;2023-06-14T00:05:36;99105.03;;;13.32;64.36
75996;BME280;64681;49.738;9.004;2023-06-14T00:08:06;99110.88;;;13.38;64.27
75996;BME280;64681;49.738;9.004;2023-06-14T00:10:37;99109.59;;;13.32;64.20
75996;BME280;64681;49.738;9.004;2023-06-14T00:13:04;99111.84;;;13.29;64.24
75996;BME280;64681;49.738;9.004;2023-06-14T00:15:31;99114.63;;;13.13;65.29
75996;BME280;64681;49.738;9.004;2023-06-14T00:17:57;99109.47;;;13.24;64.71
75996;BME280;64681;49.738;9.004;2023-06-14T00:20:26;99106.84;;;13.28;64.29
75996;BME280;64681;49.738;9.004;2023-06-14T00:22:52;99115.41;;;13.14;65.01
75996;BME280;64681;49.738;9.004;2023-06-14T00:25:17;99108.97;;;13.19;64.40
75996;BME280;64681;49.738;9.004;2023-06-14T00:27:43;99110.69;;;13.47;63.28
75996;BME280;64681;49.738;9.004;2023-06-14T00:30:08;99110.25;;;13.44;63.34
75996;BME280;64681;49.738;9.004;2023-06-14T00:32:34;99115.19;;;13.42;63.91
75996;BME280;64681;49.738;9.004;2023-06-14T00:35:00;99113.50;;;13.14;64.74
75996;BME280;64681;49.738;9.004;2023-06-14T00:37:25;99104.19;;;13.08;65.03
75996;BME280;64681;49.738;9.004;2023-06-14T00:39:50;99107.69;;;13.12;64.74
75996;BME280;64681;49.738;9.004;2023-06-14T00:42:25;99110.03;;;12.94;66.06
75996;BME280;64681;49.738;9.004;2023-06-14T00:44:51;99107.56;;;12.86;66.55
75996;BME280;64681;49.738;9.004;2023-06-14T00:47:17;99103.41;;;12.88;66.21
75996;BME280;64681;49.738;9.004;2023-06-14T00:49:44;99103.19;;;12.77;66.51
75996;BME280;64681;49.738;9.004;2023-06-14T00:52:10;99112.03;;;12.97;65.64
75996;BME280;64681;49.738;9.004;2023-06-14T00:54:39;99112.78;;;12.78;67.14
75996;BME280;64681;49.738;9.004;2023-06-14T00:57:05;99115.31;;;12.71;67.57
75996;BME280;64681;49.738;9.004;2023-06-14T00:59:31;99120.09;;;12.81;66.97
75996;BME280;64681;49.738;9.004;2023-06-14T01:01:57;99114.88;;;12.89;66.81
75996;BME280;64681;49.738;9.004;2023-06-14T01:04:22;99108.63;;;12.81;67.42
75996;BME280;64681;49.738;9.004;2023-06-14T01:12:24;99114.28;;;12.60;67.82
75996;BME280;64681;49.738;9.004;2023-06-14T01:14:54;99118.63;;;12.48;68.08
75996;BME280;64681;49.738;9.004;2023-06-14T01:17:21;99119.44;;;12.33;68.53
75996;BME280;64681;49.738;9.004;2023-06-14T01:19:48;99116.66;;;12.29;68.52
75996;BME280;64681;49.738;9.004;2023-06-14T01:22:14;99118.13;;;12.27;68.54
75996;BME280;64681;49.738;9.004;2023-06-14T01:24:40;99116.41;;;12.34;68.45
75996;BME280;64681;49.738;9.004;2023-06-14T01:27:11;99122.34;;;12.28;68.59
75996;BME280;64681;49.738;9.004;2023-06-14T01:29:38;99119.06;;;12.34;67.55
75996;BME280;64681;49.738;9.004;2023-06-14T01:32:05;99122.88;;;12.17;68.33
75996;BME280;64681;49.738;9.004;2023-06-14T01:34:32;99121.66;;;11.99;69.42
75996;BME280;64681;49.738;9.004;2023-06-14T01:37:00;99125.47;;;12.14;68.93
75996;BME280;64681;49.738;9.004;2023-06-14T01:39:27;99124.44;;;12.02;69.23
75996;BME280;64681;49.738;9.004;2023-06-14T01:41:53;99118.31;;;12.02;69.91
75996;BME280;64681;49.738;9.004;2023-06-14T01:44:19;99118.22;;;12.14;68.84
75996;BME280;64681;49.738;9.004;2023-06-14T01:46:46;99112.34;;;12.09;68.85
75996;BME280;64681;49.738;9.004;2023-06-14T01:49:11;99120.72;;;12.07;69.20
75996;BME280;64681;49.738;9.004;2023-06-14T01:51:37;99120.91;;;12.14;69.03
75996;BME280;64681;49.738;9.004;2023-06-14T01:54:02;99122.03;;;12.29;68.62
75996;BME280;64681;49.738;9.004;2023-06-14T01:56:28;99121.59;;;12.27;68.30
75996;BME280;64681;49.738;9.004;2023-06-14T01:58:53;99123.09;;;11.96;68.80
75996;BME280;64681;49.738;9.004;2023-06-14T02:01:19;99117.78;;;12.12;68.24
75996;BME280;64681;49.738;9.004;2023-06-14T02:03:46;99126.59;;;12.13;68.25
75996;BME280;64681;49.738;9.004;2023-06-14T02:06:12;99127.44;;;12.17;68.37
75996;BME280;64681;49.738;9.004;2023-06-14T02:08:37;99118.09;;;11.95;69.22
75996;BME280;64681;49.738;9.004;2023-06-14T02:11:03;99120.34;;;11.93;68.77
75996;BME280;64681;49.738;9.004;2023-06-14T02:13:28;99127.53;;;12.05;68.17
75996;BME280;64681;49.738;9.004;2023-06-14T02:15:54;99129.03;;;11.90;68.75
75996;BME280;64681;49.738;9.004;2023-06-14T02:18:20;99131.31;;;11.87;69.32
75996;BME280;64681;49.738;9.004;2023-06-14T02:20:47;99120.41;;;11.80;69.09
75996;BME280;64681;49.738;9.004;2023-06-14T02:23:12;99129.63;;;11.67;69.95
75996;BME280;64681;49.738;9.004;2023-06-14T02:25:38;99131.25;;;11.55;70.04
75996;BME280;64681;49.738;9.004;2023-06-14T02:28:04;99131.91;;;11.52;70.71
75996;BME280;64681;49.738;9.004;2023-06-14T02:30:30;99129.47;;;11.76;69.48
75996;BME280;64681;49.738;9.004;2023-06-14T02:32:56;99126.19;;;11.66;69.29
75996;BME280;64681;49.738;9.004;2023-06-14T02:35:22;99136.06;;;11.50;70.39
75996;BME280;64681;49.738;9.004;2023-06-14T02:37:49;99126.19;;;11.38;70.46
75996;BME280;64681;49.738;9.004;2023-06-14T02:40:16;99137.84;;;11.46;70.43
75996;BME280;64681;49.738;9.004;2023-06-14T02:42:41;99133.66;;;11.61;69.85
75996;BME280;64681;49.738;9.004;2023-06-14T02:45:07;99137.72;;;11.54;70.26
75996;BME280;64681;49.738;9.004;2023-06-14T02:47:33;99129.72;;;11.42;70.33
75996;BME280;64681;49.738;9.004;2023-06-14T02:49:59;99134.94;;;11.51;70.29
75996;BME280;64681;49.738;9.004;2023-06-14T02:52:24;99136.81;;;11.50;70.18
75996;BME280;64681;49.738;9.004;2023-06-14T02:54:50;99138.25;;;11.60;70.07
75996;BME280;64681;49.738;9.004;2023-06-14T02:57:16;99136.06;;;11.50;69.98
75996;BME280;64681;49.738;9.004;2023-06-14T02:59:41;99136.44;;;11.64;69.99
75996;BME280;64681;49.738;9.004;2023-06-14T03:02:06;99139.31;;;11.43;70.29
75996;BME280;64681;49.738;9.004;2023-06-14T03:04:32;99145.78;;;11.42;70.62
75996;BME280;64681;49.738;9.004;2023-06-14T03:07:02;99148.88;;;11.44;70.56
75996;BME280;64681;49.738;9.004;2023-06-14T03:09:28;99149.88;;;11.23;71.11
75996;BME280;64681;49.738;9.004;2023-06-14T03:11:54;99157.53;;;11.25;71.75
75996;BME280;64681;49.738;9.004;2023-06-14T03:14:19;99145.56;;;11.35;70.93
75996;BME280;64681;49.738;9.004;2023-06-14T03:16:46;99162.41;;;11.35;71.07
75996;BME280;64681;49.738;9.004;2023-06-14T03:19:12;99153.03;;;11.42;70.85
75996;BME280;64681;49.738;9.004;2023-06-14T03:21:37;99161.41;;;11.40;70.42
75996;BME280;64681;49.738;9.004;2023-06-14T03:24:04;99164.63;;;11.33;70.33
75996;BME280;64681;49.738;9.004;2023-06-14T03:26:29;99169.34;;;11.24;71.15
75996;BME280;64681;49.738;9.004;2023-06-14T03:28:56;99164.88;;;11.28;71.14
75996;BME280;64681;49.738;9.004;2023-06-14T03:31:22;99171.09;;;11.32;70.74
75996;BME280;64681;49.738;9.004;2023-06-14T03:33:48;99164.22;;;11.19;71.39
75996;BME280;64681;49.738;9.004;2023-06-14T03:36:14;99167.41;;;11.37;70.91
75996;BME280;64681;49.738;9.004;2023-06-14T03:38:40;99161.41;;;11.40;70.11
75996;BME280;64681;49.738;9.004;2023-06-14T03:41:05;99164.34;;;11.51;69.98
75996;BME280;64681;49.738;9.004;2023-06-14T03:43:31;99173.78;;;11.61;69.71
75996;BME280;64681;49.738;9.004;2023-06-14T03:45:56;99178.03;;;11.62;69.92
75996;BME280;64681;49.738;9.004;2023-06-14T03:48:22;99174.31;;;11.66;69.67
75996;BME280;64681;49.738;9.004;2023-06-14T03:50:47;99178.97;;;11.69;69.95
75996;BME280;64681;49.738;9.004;2023-06-14T03:53:12;99186.81;;;11.62;70.49
75996;BME280;64681;49.738;9.004;2023-06-14T03:55:38;99185.31;;;11.77;70.36
75996;BME280;64681;49.738;9.004;2023-06-14T03:58:05;99196.34;;;11.76;69.65
75996;BME280;64681;49.738;9.004;2023-06-14T04:00:31;99198.50;;;11.98;68.96
75996;BME280;64681;49.738;9.004;2023-06-14T04:02:57;99186.59;;;11.83;70.39
75996;BME280;64681;49.738;9.004;2023-06-14T04:05:22;99201.19;;;11.86;70.59
75996;BME280;64681;49.738;9.004;2023-06-14T04:07:51;99206.41;;;11.95;70.01
75996;BME280;64681;49.738;9.004;2023-06-14T04:10:17;99219.00;;;11.94;70.21
75996;BME280;64681;49.738;9.004;2023-06-14T04:12:43;99210.31;;;11.97;70.37
75996;BME280;64681;49.738;9.004;2023-06-14T04:15:09;99205.16;;;12.05;70.57
75996;BME280;64681;49.738;9.004;2023-06-14T04:17:35;99206.91;;;12.13;69.87
75996;BME280;64681;49.738;9.004;2023-06-14T04:20:02;99217.25;;;12.30;69.30
75996;BME280;64681;49.738;9.004;2023-06-14T04:22:29;99204.31;;;12.48;68.36
75996;BME280;64681;49.738;9.004;2023-06-14T04:24:56;99206.38;;;12.55;68.72
75996;BME280;64681;49.738;9.004;2023-06-14T04:27:22;99218.13;;;12.82;67.32
75996;BME280;64681;49.738;9.004;2023-06-14T04:29:54;99224.59;;;12.97;66.95
75996;BME280;64681;49.738;9.004;2023-06-14T04:32:24;99220.50;;;13.04;66.66
75996;BME280;64681;49.738;9.004;2023-06-14T04:34:55;99223.25;;;13.07;66.37
75996;BME280;64681;49.738;9.004;2023-06-14T04:37:21;99222.75;;;13.37;65.87
75996;BME280;64681;49.738;9.004;2023-06-14T04:39:50;99222.28;;;13.71;65.15
75996;BME280;64681;49.738;9.004;2023-06-14T04:42:17;99222.75;;;13.96;64.51
75996;BME280;64681;49.738;9.004;2023-06-14T04:44:45;99225.16;;;14.24;63.42
75996;BME280;64681;49.738;9.004;2023-06-14T04:47:13;99223.19;;;14.45;62.85
75996;BME280;64681;49.738;9.004;2023-06-14T04:49:39;99230.19;;;14.49;62.62
75996;BME280;64681;49.738;9.004;2023-06-14T04:52:07;99223.06;;;14.84;61.92
75996;BME280;64681;49.738;9.004;2023-06-14T04:54:33;99231.34;;;15.29;60.55
75996;BME280;64681;49.738;9.004;2023-06-14T04:56:59;99238.13;;;15.46;60.20
75996;BME280;64681;49.738;9.004;2023-06-14T04:59:25;99233.91;;;15.48;60.01
75996;BME280;64681;49.738;9.004;2023-06-14T05:01:51;99223.88;;;15.79;59.70
75996;BME280;64681;49.738;9.004;2023-06-14T05:04:17;99228.78;;;16.04;58.95
75996;BME280;64681;49.738;9.004;2023-06-14T05:06:43;99240.28;;;16.39;58.15
75996;BME280;64681;49.738;9.004;2023-06-14T05:09:15;99238.97;;;16.70;57.70
75996;BME280;64681;49.738;9.004;2023-06-14T05:11:42;99241.53;;;17.01;57.07
75996;BME280;64681;49.738;9.004;2023-06-14T05:14:10;99252.09;;;17.31;54.39
75996;BME280;64681;49.738;9.004;2023-06-14T05:16:36;99242.94;;;17.54;51.68
75996;BME280;64681;49.738;9.004;2023-06-14T05:19:02;99234.78;;;17.39;52.39
75996;BME280;64681;49.738;9.004;2023-06-14T05:21:29;99243.81;;;17.80;51.68
75996;BME280;64681;49.738;9.004;2023-06-14T05:23:55;99238.50;;;17.98;51.07
75996;BME280;64681;49.738;9.004;2023-06-14T05:26:21;99233.09;;;18.09;51.35
75996;BME280;64681;49.738;9.004;2023-06-14T05:28:48;99230.06;;;18.54;50.92
75996;BME280;64681;49.738;9.004;2023-06-14T05:31:15;99239.66;;;19.12;47.95
75996;BME280;64681;49.738;9.004;2023-06-14T05:33:40;99240.38;;;19.24;48.45
75996;BME280;64681;49.738;9.004;2023-06-14T05:36:05;99243.72;;;19.68;46.95
75996;BME280;64681;49.738;9.004;2023-06-14T05:38:31;99242.47;;;19.90;46.81
75996;BME280;64681;49.738;9.004;2023-06-14T05:40:56;99253.34;;;20.43;45.22
75996;BME280;64681;49.738;9.004;2023-06-14T05:43:22;99252.31;;;20.75;44.26
75996;BME280;64681;49.738;9.004;2023-06-14T05:45:47;99257.63;;;20.90;44.93
75996;BME280;64681;49.738;9.004;2023-06-14T05:48:13;99270.34;;;21.34;44.83
75996;BME280;64681;49.738;9.004;2023-06-14T05:50:38;99252.88;;;21.70;43.51
75996;BME280;64681;49.738;9.004;2023-06-14T05:53:04;99265.47;;;22.42;43.47
75996;BME280;64681;49.738;9.004;2023-06-14T05:55:29;99267.13;;;23.07;42.24
75996;BME280;64681;49.738;9.004;2023-06-14T05:57:55;99264.09;;;23.82;41.05
75996;BME280;64681;49.738;9.004;2023-06-14T06:00:20;99256.34;;;24.50;38.86
75996;BME280;64681;49.738;9.004;2023-06-14T06:02:46;99262.03;;;25.19;37.37
75996;BME280;64681;49.738;9.004;2023-06-14T06:05:13;99258.47;;;26.16;34.98
75996;BME280;64681;49.738;9.004;2023-06-14T06:07:39;99260.22;;;26.83;33.44
75996;BME280;64681;49.738;9.004;2023-06-14T06:10:06;99264.78;;;27.44;33.73
75996;BME280;64681;49.738;9.004;2023-06-14T06:12:32;99258.94;;;28.36;31.18
75996;BME280;64681;49.738;9.004;2023-06-14T06:14:58;99266.44;;;29.47;31.00
75996;BME280;64681;49.738;9.004;2023-06-14T06:17:25;99269.97;;;30.73;29.05
75996;BME280;64681;49.738;9.004;2023-06-14T06:19:50;99269.88;;;32.17;26.30
75996;BME280;64681;49.738;9.004;2023-06-14T06:22:16;99270.25;;;33.13;23.80
75996;BME280;64681;49.738;9.004;2023-06-14T06:24:42;99282.63;;;33.76;22.78
75996;BME280;64681;49.738;9.004;2023-06-14T06:27:07;99288.09;;;35.69;20.95
75996;BME280;64681;49.738;9.004;2023-06-14T06:29:33;99292.16;;;38.05;20.08
75996;BME280;64681;49.738;9.004;2023-06-14T06:31:59;99294.44;;;39.08;18.28
75996;BME280;64681;49.738;9.004;2023-06-14T06:34:24;99295.50;;;39.24;16.90
75996;BME280;64681;49.738;9.004;2023-06-14T06:36:50;99285.19;;;40.05;16.27
75996;BME280;64681;49.738;9.004;2023-06-14T06:39:15;99289.56;;;38.76;18.07
75996;BME280;64681;49.738;9.004;2023-06-14T06:41:41;99287.66;;;38.46;17.78
75996;BME280;64681;49.738;9.004;2023-06-14T06:44:07;99287.66;;;37.72;17.46
75996;BME280;64681;49.738;9.004;2023-06-14T06:46:33;99292.03;;;37.31;18.99
75996;BME280;64681;49.738;9.004;2023-06-14T06:48:59;99296.88;;;38.16;17.76
75996;BME280;64681;49.738;9.004;2023-06-14T06:51:24;99294.66;;;38.53;17.69
75996;BME280;64681;49.738;9.004;2023-06-14T06:53:53;99294.78;;;38.22;17.86
75996;BME280;64681;49.738;9.004;2023-06-14T06:56:19;99287.28;;;38.55;17.13
75996;BME280;64681;49.738;9.004;2023-06-14T06:58:45;99295.38;;;38.15;17.48
75996;BME280;64681;49.738;9.004;2023-06-14T07:01:10;99295.47;;;37.48;18.17
75996;BME280;64681;49.738;9.004;2023-06-14T07:03:37;99297.09;;;38.43;17.09
75996;BME280;64681;49.738;9.004;2023-06-14T07:06:02;99296.09;;;39.49;16.32
75996;BME280;64681;49.738;9.004;2023-06-14T07:08:28;99303.88;;;39.70;16.34
75996;BME280;64681;49.738;9.004;2023-06-14T07:10:53;99294.25;;;38.87;17.69
75996;BME280;64681;49.738;9.004;2023-06-14T07:13:18;99298.75;;;38.90;16.77
75996;BME280;64681;49.738;9.004;2023-06-14T07:15:44;99294.09;;;38.79;17.13
75996;BME280;64681;49.738;9.004;2023-06-14T07:18:10;99293.72;;;37.76;18.03
75996;BME280;64681;49.738;9.004;2023-06-14T07:20:35;99295.34;;;36.93;18.02
75996;BME280;64681;49.738;9.004;2023-06-14T07:23:03;99289.59;;;35.87;19.14
75996;BME280;64681;49.738;9.004;2023-06-14T07:25:29;99315.53;;;36.40;19.15
75996;BME280;64681;49.738;9.004;2023-06-14T07:27:54;99309.66;;;34.74;19.77
75996;BME280;64681;49.738;9.004;2023-06-14T07:30:20;99305.53;;;35.63;19.51
75996;BME280;64681;49.738;9.004;2023-06-14T07:32:46;99298.94;;;36.01;18.88
75996;BME280;64681;49.738;9.004;2023-06-14T07:35:11;99302.59;;;36.54;19.45
75996;BME280;64681;49.738;9.004;2023-06-14T07:37:37;99296.69;;;35.31;19.63
75996;BME280;64681;49.738;9.004;2023-06-14T07:40:02;99306.19;;;32.45;22.31
75996;BME280;64681;49.738;9.004;2023-06-14T07:42:35;99290.03;;;33.58;21.43
75996;BME280;64681;49.738;9.004;2023-06-14T07:45:05;99289.34;;;34.45;20.36
75996;BME280;64681;49.738;9.004;2023-06-14T07:47:31;99288.56;;;33.31;21.53
75996;BME280;64681;49.738;9.004;2023-06-14T07:49:57;99293.28;;;31.41;23.41
75996;BME280;64681;49.738;9.004;2023-06-14T07:52:22;99282.66;;;30.55;24.76
75996;BME280;64681;49.738;9.004;2023-06-14T07:54:48;99296.19;;;31.07;24.42
75996;BME280;64681;49.738;9.004;2023-06-14T07:57:13;99296.69;;;30.82;24.27
75996;BME280;64681;49.738;9.004;2023-06-14T07:59:39;99290.69;;;31.07;24.28
75996;BME280;64681;49.738;9.004;2023-06-14T08:02:04;99299.41;;;31.45;23.85
75996;BME280;64681;49.738;9.004;2023-06-14T08:04:31;99303.69;;;31.76;23.64
75996;BME280;64681;49.738;9.004;2023-06-14T08:06:56;99299.47;;;31.36;23.89
75996;BME280;64681;49.738;9.004;2023-06-14T08:09:22;99291.97;;;31.51;23.82
75996;BME280;64681;49.738;9.004;2023-06-14T08:11:48;99299.97;;;32.50;23.79
75996;BME280;64681;49.738;9.004;2023-06-14T08:14:13;99295.22;;;33.45;22.29
75996;BME280;64681;49.738;9.004;2023-06-14T08:16:39;99292.44;;;32.92;22.69
75996;BME280;64681;49.738;9.004;2023-06-14T08:19:04;99301.84;;;33.01;22.97
75996;BME280;64681;49.738;9.004;2023-06-14T08:21:30;99298.44;;;31.78;23.89
75996;BME280;64681;49.738;9.004;2023-06-14T08:23:58;99301.78;;;33.80;21.67
75996;BME280;64681;49.738;9.004;2023-06-14T08:26:24;99303.47;;;35.07;20.77
75996;BME280;64681;49.738;9.004;2023-06-14T08:28:54;99301.16;;;32.64;22.27
75996;BME280;64681;49.738;9.004;2023-06-14T08:31:20;99303.47;;;30.23;25.12
75996;BME280;64681;49.738;9.004;2023-06-14T08:33:46;99299.84;;;31.88;23.85
75996;BME280;64681;49.738;9.004;2023-06-14T08:36:11;99304.34;;;31.71;23.84
75996;BME280;64681;49.738;9.004;2023-06-14T08:38:38;99298.34;;;31.57;24.33
75996;BME280;64681;49.738;9.004;2023-06-14T08:41:05;99304.06;;;31.54;24.15
75996;BME280;64681;49.738;9.004;2023-06-14T08:43:31;99308.97;;;31.95;22.87
75996;BME280;64681;49.738;9.004;2023-06-14T08:46:00;99306.03;;;32.34;23.15
75996;BME280;64681;49.738;9.004;2023-06-14T08:48:27;99305.06;;;32.99;21.88
75996;BME280;64681;49.738;9.004;2023-06-14T08:50:56;99297.38;;;31.31;24.14
75996;BME280;64681;49.738;9.004;2023-06-14T08:53:28;99298.16;;;32.27;22.86
75996;BME280;64681;49.738;9.004;2023-06-14T08:55:58;99304.59;;;32.59;22.93
75996;BME280;64681;49.738;9.004;2023-06-14T08:58:25;99305.91;;;32.08;23.33
75996;BME280;64681;49.738;9.004;2023-06-14T09:00:51;99303.97;;;30.94;24.64
75996;BME280;64681;49.738;9.004;2023-06-14T09:03:18;99309.56;;;28.95;26.04
75996;BME280;64681;49.738;9.004;2023-06-14T09:05:45;99297.09;;;28.62;27.01
75996;BME280;64681;49.738;9.004;2023-06-14T09:08:11;99302.94;;;30.67;25.65
75996;BME280;64681;49.738;9.004;2023-06-14T09:10:36;99308.44;;;30.09;25.97
75996;BME280;64681;49.738;9.004;2023-06-14T09:13:03;99309.06;;;28.18;27.77
75996;BME280;64681;49.738;9.004;2023-06-14T09:15:30;99314.91;;;27.44;28.95
75996;BME280;64681;49.738;9.004;2023-06-14T09:17:55;99317.56;;;26.00;31.02
75996;BME280;64681;49.738;9.004;2023-06-14T09:20:24;99315.88;;;24.56;33.28
75996;BME280;64681;49.738;9.004;2023-06-14T09:22:50;99317.50;;;26.30;31.78
75996;BME280;64681;49.738;9.004;2023-06-14T09:25:15;99318.53;;;25.81;31.98
75996;BME280;64681;49.738;9.004;2023-06-14T09:27:41;99315.16;;;27.59;30.98
75996;BME280;64681;49.738;9.004;2023-06-14T09:30:09;99309.97;;;28.15;28.47
75996;BME280;64681;49.738;9.004;2023-06-14T09:32:39;99311.53;;;30.02;25.00
75996;BME280;64681;49.738;9.004;2023-06-14T09:35:09;99315.09;;;30.27;25.49
75996;BME280;64681;49.738;9.004;2023-06-14T09:37:35;99324.97;;;31.46;23.44
75996;BME280;64681;49.738;9.004;2023-06-14T09:40:03;99316.56;;;32.71;22.15
75996;BME280;64681;49.738;9.004;2023-06-14T09:42:29;99321.28;;;32.86;21.97
75996;BME280;64681;49.738;9.004;2023-06-14T09:44:56;99328.91;;;31.69;23.58
75996;BME280;64681;49.738;9.004;2023-06-14T09:47:23;99334.50;;;28.59;26.50
75996;BME280;64681;49.738;9.004;2023-06-14T09:49:49;99326.88;;;28.54;27.34
75996;BME280;64681;49.738;9.004;2023-06-14T09:52:17;99329.53;;;27.95;28.29
75996;BME280;64681;49.738;9.004;2023-06-14T09:54:45;99319.97;;;28.40;27.45
75996;BME280;64681;49.738;9.004;2023-06-14T09:57:16;99314.72;;;28.15;26.92
75996;BME280;64681;49.738;9.004;2023-06-14T09:59:44;99321.47;;;28.01;26.83
75996;BME280;64681;49.738;9.004;2023-06-14T10:02:26;99331.81;;;27.65;26.94
75996;BME280;64681;49.738;9.004;2023-06-14T10:05:06;99328.06;;;26.79;28.67
75996;BME280;64681;49.738;9.004;2023-06-14T10:07:37;99322.50;;;25.92;29.72
75996;BME280;64681;49.738;9.004;2023-06-14T10:10:04;99320.53;;;26.45;29.64
75996;BME280;64681;49.738;9.004;2023-06-14T10:12:31;99317.91;;;26.54;29.26
75996;BME280;64681;49.738;9.004;2023-06-14T10:14:57;99309.16;;;25.23;31.32
75996;BME280;64681;49.738;9.004;2023-06-14T10:17:39;99326.22;;;25.43;31.46
75996;BME280;64681;49.738;9.004;2023-06-14T10:22:42;99326.13;;;25.31;31.06
75996;BME280;64681;49.738;9.004;2023-06-14T10:25:13;99327.63;;;25.19;31.49
75996;BME280;64681;49.738;9.004;2023-06-14T10:27:50;99327.22;;;25.04;31.63
75996;BME280;64681;49.738;9.004;2023-06-14T10:30:16;99318.19;;;24.90;32.24
75996;BME280;64681;49.738;9.004;2023-06-14T10:33:07;99313.31;;;24.32;32.27
75996;BME280;64681;49.738;9.004;2023-06-14T10:35:33;99316.13;;;24.28;32.64
75996;BME280;64681;49.738;9.004;2023-06-14T10:38:09;99318.44;;;24.63;31.96
75996;BME280;64681;49.738;9.004;2023-06-14T10:40:38;99317.69;;;24.62;32.26
75996;BME280;64681;49.738;9.004;2023-06-14T10:43:23;99319.75;;;25.50;30.67
75996;BME280;64681;49.738;9.004;2023-06-14T10:46:16;99313.69;;;25.59;30.21
75996;BME280;64681;49.738;9.004;2023-06-14T10:48:45;99320.31;;;24.66;31.00
75996;BME280;64681;49.738;9.004;2023-06-14T10:51:18;99314.88;;;24.83;30.38
75996;BME280;64681;49.738;9.004;2023-06-14T10:53:48;99315.09;;;25.34;29.10
75996;BME280;64681;49.738;9.004;2023-06-14T10:56:26;99312.47;;;25.31;28.95
75996;BME280;64681;49.738;9.004;2023-06-14T10:58:52;99316.13;;;25.40;29.23
75996;BME280;64681;49.738;9.004;2023-06-14T11:01:35;99317.44;;;25.19;30.21
75996;BME280;64681;49.738;9.004;2023-06-14T11:04:09;99316.75;;;24.86;30.34
75996;BME280;64681;49.738;9.004;2023-06-14T11:06:50;99319.47;;;25.32;30.60
75996;BME280;64681;49.738;9.004;2023-06-14T11:09:40;99321.97;;;25.26;31.11
75996;BME280;64681;49.738;9.004;2023-06-14T11:12:10;99314.25;;;24.91;32.96
75996;BME280;64681;49.738;9.004;2023-06-14T11:14:38;99313.56;;;25.04;31.48
75996;BME280;64681;49.738;9.004;2023-06-14T11:17:04;99305.91;;;24.82;32.14
75996;BME280;64681;49.738;9.004;2023-06-14T11:19:30;99299.97;;;25.46;30.58
75996;BME280;64681;49.738;9.004;2023-06-14T11:21:57;99308.16;;;25.17;30.94
75996;BME280;64681;49.738;9.004;2023-06-14T11:24:22;99314.66;;;25.36;32.22
75996;BME280;64681;49.738;9.004;2023-06-14T11:26:48;99312.53;;;24.97;31.09
75996;BME280;64681;49.738;9.004;2023-06-14T11:29:16;99304.84;;;24.10;31.99
75996;BME280;64681;49.738;9.004;2023-06-14T11:31:45;99302.38;;;24.32;32.72
75996;BME280;64681;49.738;9.004;2023-06-14T11:34:11;99299.75;;;24.28;32.24
75996;BME280;64681;49.738;9.004;2023-06-14T11:36:38;99306.00;;;24.78;31.81
75996;BME280;64681;49.738;9.004;2023-06-14T11:39:06;99296.94;;;24.98;28.94
75996;BME280;64681;49.738;9.004;2023-06-14T11:41:42;99298.13;;;25.26;28.73
75996;BME280;64681;49.738;9.004;2023-06-14T11:44:09;99294.31;;;25.53;28.13
75996;BME280;64681;49.738;9.004;2023-06-14T11:46:35;99295.56;;;25.78;29.23
75996;BME280;64681;49.738;9.004;2023-06-14T11:49:02;99306.41;;;25.39;29.75
75996;BME280;64681;49.738;9.004;2023-06-14T11:51:33;99300.72;;;25.47;29.82
75996;BME280;64681;49.738;9.004;2023-06-14T11:54:02;99299.59;;;25.73;30.19
75996;BME280;64681;49.738;9.004;2023-06-14T11:56:29;99300.91;;;25.69;29.32
75996;BME280;64681;49.738;9.004;2023-06-14T11:58:56;99290.94;;;25.62;29.20
75996;BME280;64681;49.738;9.004;2023-06-14T12:01:22;99301.72;;;25.40;30.13
75996;BME280;64681;49.738;9.004;2023-06-14T12:03:49;99305.47;;;24.84;30.59
75996;BME280;64681;49.738;9.004;2023-06-14T12:06:15;99309.34;;;24.70;31.28
75996;BME280;64681;49.738;9.004;2023-06-14T12:08:42;99309.38;;;25.45;28.93
75996;BME280;64681;49.738;9.004;2023-06-14T12:11:13;99301.34;;;25.08;29.50
75996;BME280;64681;49.738;9.004;2023-06-14T12:13:40;99301.31;;;25.67;29.16
75996;BME280;64681;49.738;9.004;2023-06-14T12:16:12;99295.28;;;25.59;30.90
75996;BME280;64681;49.738;9.004;2023-06-14T12:18:39;99285.06;;;25.89;29.89
75996;BME280;64681;49.738;9.004;2023-06-14T12:21:06;99299.41;;;26.19;29.23
75996;BME280;64681;49.738;9.004;2023-06-14T12:26:07;99297.09;;;27.27;27.60
75996;BME280;64681;49.738;9.004;2023-06-14T12:28:33;99304.22;;;26.41;27.96
75996;BME280;64681;49.738;9.004;2023-06-14T12:30:58;99298.78;;;26.15;29.61
75996;BME280;64681;49.738;9.004;2023-06-14T12:33:24;99303.19;;;26.74;28.25
75996;BME280;64681;49.738;9.004;2023-06-14T12:35:50;99300.75;;;25.59;29.95
75996;BME280;64681;49.738;9.004;2023-06-14T12:38:16;99300.28;;;26.03;29.51
75996;BME280;64681;49.738;9.004;2023-06-14T12:40:41;99309.72;;;26.15;28.62
75996;BME280;64681;49.738;9.004;2023-06-14T12:43:07;99303.47;;;26.15;29.11
75996;BME280;64681;49.738;9.004;2023-06-14T12:45:33;99300.03;;;26.49;29.42
75996;BME280;64681;49.738;9.004;2023-06-14T12:47:58;99297.00;;;26.34;28.59
75996;BME280;64681;49.738;9.004;2023-06-14T12:50:24;99301.25;;;25.97;28.84
75996;BME280;64681;49.738;9.004;2023-06-14T12:52:49;99300.25;;;25.78;29.74
75996;BME280;64681;49.738;9.004;2023-06-14T12:55:15;99293.59;;;26.04;29.82
75996;BME280;64681;49.738;9.004;2023-06-14T12:57:40;99293.72;;;26.14;28.96
75996;BME280;64681;49.738;9.004;2023-06-14T13:00:06;99296.34;;;26.17;28.10
75996;BME280;64681;49.738;9.004;2023-06-14T13:02:32;99296.00;;;26.02;28.82
75996;BME280;64681;49.738;9.004;2023-06-14T13:04:58;99303.97;;;25.97;29.20
75996;BME280;64681;49.738;9.004;2023-06-14T13:07:24;99292.81;;;25.91;28.90
75996;BME280;64681;49.738;9.004;2023-06-14T13:09:50;99301.44;;;25.76;29.10